createdAt,value
2023-05-09T00:00:51.745Z,6.27
2023-05-09T00:03:18.540Z,6.20
2023-05-09T00:05:45.496Z,6.34
2023-05-09T00:08:12.184Z,6.36
2023-05-09T00:10:38.985Z,6.21
2023-05-09T00:13:05.699Z,6.07
2023-05-09T00:15:32.476Z,6.10
2023-05-09T00:18:00.663Z,5.99
2023-05-09T00:20:27.331Z,5.98
2023-05-09T00:22:54.024Z,5.81
2023-05-09T00:25:20.766Z,5.68
2023-05-09T00:27:47.498Z,5.66
2023-05-09T00:30:14.294Z,5.59
2023-05-09T00:32:41.016Z,5.55
2023-05-09T00:35:09.706Z,5.65
2023-05-09T00:37:36.347Z,5.73
2023-05-09T00:40:04.261Z,5.75
2023-05-09T00:42:30.976Z,5.65
2023-05-09T00:44:57.870Z,5.71
2023-05-09T00:47:24.701Z,5.79
2023-05-09T00:49:51.374Z,5.88
2023-05-09T00:52:19.410Z,6.00
2023-05-09T00:54:46.196Z,6.10
2023-05-09T00:57:12.916Z,6.09
2023-05-09T00:59:39.638Z,6.03
2023-05-09T01:02:06.352Z,5.85
2023-05-09T01:04:33.184Z,6.02
2023-05-09T01:07:04.423Z,5.96
2023-05-09T01:09:37.578Z,5.98
2023-05-09T01:12:09.877Z,5.99
2023-05-09T01:14:39.365Z,6.06
2023-05-09T01:17:09.497Z,5.92
2023-05-09T01:19:46.049Z,6.27
2023-05-09T01:22:12.823Z,6.19
2023-05-09T01:25:10.049Z,6.09
2023-05-09T01:27:40.380Z,5.98
2023-05-09T01:30:09.252Z,5.88
2023-05-09T01:32:36.128Z,5.79
2023-05-09T01:35:03.150Z,5.75
2023-05-09T01:37:30.500Z,5.63
2023-05-09T01:39:58.570Z,5.54
2023-05-09T01:42:25.296Z,5.45
2023-05-09T01:44:51.956Z,5.48
2023-05-09T01:47:20.057Z,5.44
2023-05-09T01:49:46.767Z,5.50
2023-05-09T01:52:14.983Z,5.62
2023-05-09T01:54:41.759Z,5.62
2023-05-09T01:57:08.442Z,5.66
2023-05-09T01:59:35.105Z,5.72
2023-05-09T02:02:02.423Z,5.75
2023-05-09T02:04:30.654Z,5.86
2023-05-09T02:06:57.318Z,5.82
2023-05-09T02:09:24.048Z,5.89
2023-05-09T02:11:50.732Z,5.90
2023-05-09T02:14:17.541Z,5.98
2023-05-09T02:16:44.409Z,5.99
2023-05-09T02:19:11.183Z,5.88
2023-05-09T02:21:39.311Z,6.00
2023-05-09T02:24:06.641Z,5.96
2023-05-09T02:26:33.346Z,5.90
2023-05-09T02:29:00.106Z,6.00
2023-05-09T02:31:26.904Z,5.92
2023-05-09T02:33:53.638Z,5.88
2023-05-09T02:36:20.380Z,5.98
2023-05-09T02:38:48.476Z,5.98
2023-05-09T02:41:15.354Z,6.00
2023-05-09T02:43:42.069Z,5.85
2023-05-09T02:46:08.940Z,5.83
2023-05-09T02:48:35.669Z,5.82
2023-05-09T02:51:02.382Z,5.76
2023-05-09T02:53:29.093Z,5.79
2023-05-09T02:55:57.302Z,5.69
2023-05-09T02:58:23.991Z,5.62
2023-05-09T03:00:50.757Z,5.55
2023-05-09T03:03:17.534Z,5.55
2023-05-09T03:05:44.270Z,5.48
2023-05-09T03:08:10.987Z,5.54
2023-05-09T03:10:37.704Z,5.48
2023-05-09T03:13:05.792Z,5.24
2023-05-09T03:15:32.529Z,5.00
2023-05-09T03:17:59.295Z,4.99
2023-05-09T03:20:26.268Z,4.87
2023-05-09T03:22:53.079Z,4.79
2023-05-09T03:25:19.903Z,4.79
2023-05-09T03:27:46.643Z,4.73
2023-05-09T03:30:15.299Z,4.84
2023-05-09T03:32:42.027Z,4.86
2023-05-09T03:35:08.898Z,4.86
2023-05-09T03:37:35.592Z,4.86
2023-05-09T03:40:02.274Z,4.87
2023-05-09T03:42:28.971Z,4.94
2023-05-09T03:44:55.694Z,4.93
2023-05-09T03:47:23.849Z,5.12
2023-05-09T03:49:50.565Z,5.48
2023-05-09T03:52:17.304Z,5.92
2023-05-09T03:54:44.032Z,6.37
2023-05-09T03:57:10.993Z,6.77
2023-05-09T03:59:37.786Z,7.22
2023-05-09T04:02:04.543Z,7.71
2023-05-09T04:04:32.656Z,8.15
2023-05-09T04:06:59.424Z,8.56
2023-05-09T04:09:26.225Z,9.21
2023-05-09T04:11:52.919Z,9.22
2023-05-09T04:14:19.670Z,9.56
2023-05-09T04:16:46.404Z,9.53
2023-05-09T04:19:13.057Z,10.12
2023-05-09T04:21:41.300Z,9.29
2023-05-09T04:24:08.237Z,9.90
2023-05-09T04:26:35.422Z,9.51
2023-05-09T04:29:02.171Z,10.21
2023-05-09T04:31:28.914Z,10.28
2023-05-09T04:33:55.639Z,10.18
2023-05-09T04:36:22.406Z,10.12
2023-05-09T04:38:50.494Z,10.48
2023-05-09T04:41:17.174Z,10.01
2023-05-09T04:43:43.866Z,10.36
2023-05-09T04:46:10.612Z,10.39
2023-05-09T04:48:37.353Z,10.62
2023-05-09T04:51:04.081Z,10.99
2023-05-09T04:53:30.780Z,10.99
2023-05-09T04:55:58.872Z,11.55
2023-05-09T04:58:25.592Z,11.99
2023-05-09T05:00:52.261Z,12.13
2023-05-09T05:03:18.951Z,11.46
2023-05-09T05:05:45.732Z,12.62
2023-05-09T05:08:12.439Z,12.78
2023-05-09T05:10:39.114Z,12.85
2023-05-09T05:13:07.323Z,12.31
2023-05-09T05:15:34.059Z,12.12
2023-05-09T05:18:00.803Z,12.04
2023-05-09T05:20:27.607Z,11.90
2023-05-09T05:22:54.317Z,11.78
2023-05-09T05:25:21.044Z,12.92
2023-05-09T05:27:47.828Z,12.33
2023-05-09T05:30:16.238Z,12.45
2023-05-09T05:32:42.918Z,12.97
2023-05-09T05:35:09.966Z,12.62
2023-05-09T05:37:36.724Z,12.37
2023-05-09T05:40:03.781Z,13.54
2023-05-09T05:42:30.529Z,13.34
2023-05-09T05:44:57.253Z,12.51
2023-05-09T05:47:25.317Z,12.76
2023-05-09T05:49:52.627Z,12.89
2023-05-09T05:52:19.311Z,13.13
2023-05-09T05:54:46.010Z,13.28
2023-05-09T05:57:12.780Z,13.51
2023-05-09T05:59:39.492Z,13.89
2023-05-09T06:02:06.218Z,13.84
2023-05-09T06:04:34.373Z,12.72
2023-05-09T06:07:01.110Z,14.81
2023-05-09T06:09:27.833Z,14.49
2023-05-09T06:11:54.663Z,14.53
2023-05-09T06:14:21.552Z,13.91
2023-05-09T06:16:50.445Z,14.57
2023-05-09T06:19:19.122Z,15.01
2023-05-09T06:21:47.194Z,14.43
2023-05-09T06:24:23.358Z,13.39
2023-05-09T06:26:58.822Z,13.57
2023-05-09T06:29:25.538Z,13.77
2023-05-09T06:31:52.378Z,14.88
2023-05-09T06:34:19.349Z,15.08
2023-05-09T06:36:47.484Z,14.87
2023-05-09T06:39:14.192Z,14.44
2023-05-09T06:41:41.193Z,14.21
2023-05-09T06:44:07.961Z,14.98
2023-05-09T06:46:34.665Z,14.83
2023-05-09T06:49:01.361Z,16.07
2023-05-09T06:51:28.091Z,14.66
2023-05-09T06:53:56.270Z,14.91
2023-05-09T06:56:23.005Z,14.50
2023-05-09T06:58:49.718Z,15.04
2023-05-09T07:01:16.464Z,14.78
2023-05-09T07:03:43.207Z,14.98
2023-05-09T07:06:09.892Z,15.46
2023-05-09T07:08:36.598Z,15.49
2023-05-09T07:11:05.001Z,15.90
2023-05-09T07:13:31.882Z,15.97
2023-05-09T07:15:58.653Z,15.14
2023-05-09T07:18:25.461Z,15.96
2023-05-09T07:20:52.226Z,16.49
2023-05-09T07:23:18.946Z,15.47
2023-05-09T07:25:45.666Z,16.25
2023-05-09T07:28:14.217Z,15.71
2023-05-09T07:30:40.937Z,15.65
2023-05-09T07:33:07.836Z,16.76
2023-05-09T07:35:34.728Z,17.27
2023-05-09T07:38:01.419Z,16.84
2023-05-09T07:40:28.254Z,18.78
2023-05-09T07:42:54.938Z,15.56
2023-05-09T07:45:24.017Z,17.04
2023-05-09T07:47:51.012Z,16.40
2023-05-09T07:50:17.935Z,15.82
2023-05-09T07:52:44.796Z,16.10
2023-05-09T07:55:11.582Z,16.73
2023-05-09T07:57:38.356Z,19.26
2023-05-09T08:00:06.244Z,19.02
2023-05-09T08:02:34.620Z,16.59
2023-05-09T08:05:01.441Z,17.38
2023-05-09T08:07:28.172Z,17.67
2023-05-09T08:09:54.910Z,21.25
2023-05-09T08:12:21.635Z,19.37
2023-05-09T08:14:48.720Z,19.54
2023-05-09T08:17:15.483Z,20.08
2023-05-09T08:19:43.562Z,18.22
2023-05-09T08:22:16.049Z,19.49
2023-05-09T08:24:42.786Z,18.68
2023-05-09T08:27:09.469Z,18.55
2023-05-09T08:29:36.253Z,18.00
2023-05-09T08:32:03.129Z,18.72
2023-05-09T08:34:29.814Z,21.49
2023-05-09T08:36:57.998Z,20.09
2023-05-09T08:39:24.713Z,20.42
2023-05-09T08:41:51.409Z,20.32
2023-05-09T08:44:18.309Z,20.43
2023-05-09T08:46:45.110Z,24.01
2023-05-09T08:49:11.975Z,21.55
2023-05-09T08:51:38.787Z,21.11
2023-05-09T08:54:06.964Z,21.46
2023-05-09T08:56:34.205Z,20.80
2023-05-09T08:59:00.967Z,18.33
2023-05-09T09:01:27.778Z,18.89
2023-05-09T09:03:54.773Z,19.33
2023-05-09T09:06:21.823Z,19.57
2023-05-09T09:08:48.537Z,21.93
2023-05-09T09:11:16.603Z,22.89
2023-05-09T09:13:43.351Z,18.76
2023-05-09T09:16:10.642Z,19.20
2023-05-09T09:18:39.475Z,19.42
2023-05-09T09:21:07.368Z,22.14
2023-05-09T09:23:34.104Z,20.25
2023-05-09T09:26:02.111Z,19.34
2023-05-09T09:28:30.367Z,20.59
2023-05-09T09:30:57.080Z,20.15
2023-05-09T09:33:24.472Z,20.35
2023-05-09T09:35:51.623Z,20.88
2023-05-09T09:38:18.406Z,21.34
2023-05-09T09:40:54.618Z,22.03
2023-05-09T09:43:26.653Z,20.29
2023-05-09T09:45:54.925Z,18.43
2023-05-09T09:48:24.318Z,18.17
2023-05-09T09:50:51.050Z,18.22
2023-05-09T09:53:19.771Z,19.20
2023-05-09T09:55:49.676Z,21.25
2023-05-09T09:58:16.727Z,19.13
2023-05-09T10:00:43.578Z,22.84
2023-05-09T10:03:16.489Z,22.49
2023-05-09T10:05:43.414Z,20.42
2023-05-09T10:08:10.158Z,20.87
2023-05-09T10:10:37.102Z,21.89
2023-05-09T10:13:05.328Z,21.46
2023-05-09T10:15:41.414Z,21.25
2023-05-09T10:18:17.997Z,23.79
2023-05-09T10:20:44.765Z,23.79
2023-05-09T10:23:11.436Z,19.64
2023-05-09T10:25:38.956Z,19.85
2023-05-09T10:28:06.549Z,20.97
2023-05-09T10:30:35.558Z,20.26
2023-05-09T10:33:04.543Z,20.02
2023-05-09T10:35:33.684Z,20.46
2023-05-09T10:38:00.384Z,21.44
2023-05-09T10:40:27.692Z,21.72
2023-05-09T10:42:54.342Z,18.50
2023-05-09T10:45:21.324Z,18.79
2023-05-09T10:47:48.949Z,18.68
2023-05-09T10:50:15.899Z,18.46
2023-05-09T10:53:05.874Z,18.18
2023-05-09T10:55:39.141Z,21.31
2023-05-09T10:58:29.836Z,19.23
2023-05-09T11:00:57.481Z,21.31
2023-05-09T11:03:24.447Z,21.00
2023-05-09T11:05:52.065Z,21.04
2023-05-09T11:08:21.524Z,18.82
2023-05-09T11:10:48.250Z,19.56
2023-05-09T11:13:18.506Z,21.07
2023-05-09T11:16:04.305Z,25.06
2023-05-09T11:18:31.202Z,21.59
2023-05-09T11:20:57.882Z,23.22
2023-05-09T11:23:27.104Z,20.56
2023-05-09T11:25:53.925Z,21.21
2023-05-09T11:28:26.989Z,19.13
2023-05-09T11:30:54.896Z,18.84
2023-05-09T11:33:22.400Z,20.55
2023-05-09T11:35:49.106Z,20.19
2023-05-09T11:38:20.527Z,20.50
2023-05-09T11:40:48.613Z,20.35
2023-05-09T11:43:15.269Z,19.08
2023-05-09T11:45:42.018Z,18.30
2023-05-09T11:48:08.927Z,18.27
2023-05-09T11:50:35.779Z,20.04
2023-05-09T11:53:02.905Z,22.20
2023-05-09T11:55:29.609Z,21.99
2023-05-09T11:57:58.620Z,23.73
2023-05-09T12:00:25.754Z,23.17
2023-05-09T12:02:52.690Z,23.06
2023-05-09T12:05:20.436Z,20.32
2023-05-09T12:07:47.286Z,20.87
2023-05-09T12:10:14.977Z,21.35
2023-05-09T12:12:45.556Z,21.61
2023-05-09T12:15:14.426Z,20.94
2023-05-09T12:17:42.067Z,20.91
2023-05-09T12:20:09.067Z,21.05
2023-05-09T12:22:35.914Z,21.08
2023-05-09T12:25:05.479Z,22.24
2023-05-09T12:27:32.181Z,21.24
2023-05-09T12:29:59.227Z,21.55
2023-05-09T12:32:27.325Z,18.74
2023-05-09T12:34:53.996Z,18.47
2023-05-09T12:37:20.701Z,18.25
2023-05-09T12:40:00.541Z,18.69
2023-05-09T12:42:27.431Z,18.54
2023-05-09T12:44:54.119Z,20.35
2023-05-09T12:47:20.783Z,22.88
2023-05-09T12:49:50.454Z,21.55
2023-05-09T12:52:17.471Z,19.80
2023-05-09T12:54:45.329Z,18.91
2023-05-09T12:57:20.892Z,18.48
2023-05-09T12:59:47.681Z,18.79
2023-05-09T13:02:14.498Z,19.70
2023-05-09T13:04:41.252Z,20.45
2023-05-09T13:07:09.689Z,22.16
2023-05-09T13:09:36.457Z,20.83
2023-05-09T13:12:03.292Z,19.33
2023-05-09T13:14:30.126Z,20.40
2023-05-09T13:16:56.875Z,21.12
2023-05-09T13:19:23.612Z,21.38
2023-05-09T13:21:50.317Z,20.97
2023-05-09T13:24:18.407Z,21.03
2023-05-09T13:26:45.233Z,20.57
2023-05-09T13:29:11.937Z,20.91
2023-05-09T13:31:38.701Z,19.87
2023-05-09T13:34:05.555Z,20.40
2023-05-09T13:36:32.224Z,21.01
2023-05-09T13:38:58.915Z,19.26
2023-05-09T13:41:27.296Z,19.88
2023-05-09T13:43:54.090Z,19.75
2023-05-09T13:46:20.892Z,18.74
2023-05-09T13:48:47.709Z,20.36
2023-05-09T13:51:14.457Z,22.69
2023-05-09T13:53:41.598Z,19.98
2023-05-09T13:56:08.580Z,22.36
2023-05-09T13:58:36.776Z,22.34
2023-05-09T14:01:05.266Z,20.28
2023-05-09T14:03:32.445Z,19.73
2023-05-09T14:05:59.202Z,20.08
2023-05-09T14:08:25.953Z,19.82
2023-05-09T14:10:52.713Z,19.46
2023-05-09T14:13:19.510Z,19.27
2023-05-09T14:15:47.682Z,19.43
2023-05-09T14:18:17.635Z,20.21
2023-05-09T14:20:45.336Z,20.56
2023-05-09T14:23:12.034Z,19.08
2023-05-09T14:25:38.743Z,19.34
2023-05-09T14:28:05.504Z,20.28
2023-05-09T14:30:32.250Z,20.50
2023-05-09T14:33:00.409Z,20.15
2023-05-09T14:35:27.100Z,19.95
2023-05-09T14:37:53.850Z,19.34
2023-05-09T14:40:20.784Z,18.33
2023-05-09T14:42:48.023Z,18.88
2023-05-09T14:45:14.716Z,18.82
2023-05-09T14:47:41.573Z,20.62
2023-05-09T14:50:10.338Z,20.39
2023-05-09T14:52:37.025Z,19.80
2023-05-09T14:55:04.059Z,19.51
2023-05-09T14:57:30.742Z,18.54
2023-05-09T15:00:00.894Z,19.01
2023-05-09T15:02:32.622Z,18.74
2023-05-09T15:04:59.345Z,18.78
2023-05-09T15:07:27.525Z,18.69
2023-05-09T15:09:54.330Z,19.09
2023-05-09T15:12:21.043Z,18.82
2023-05-09T15:14:47.724Z,18.88
2023-05-09T15:17:14.487Z,19.69
2023-05-09T15:19:41.184Z,18.64
2023-05-09T15:22:08.061Z,18.32
2023-05-09T15:24:36.171Z,18.17
2023-05-09T15:27:02.962Z,18.14
2023-05-09T15:29:29.623Z,17.92
2023-05-09T15:31:56.363Z,17.72
2023-05-09T15:34:23.051Z,17.89
2023-05-09T15:36:49.850Z,17.89
2023-05-09T15:39:16.594Z,17.78
2023-05-09T15:41:44.691Z,17.85
2023-05-09T15:44:11.369Z,17.68
2023-05-09T15:46:38.170Z,17.81
2023-05-09T15:49:04.867Z,17.83
2023-05-09T15:51:31.582Z,17.92
2023-05-09T15:53:58.297Z,17.82
2023-05-09T15:56:24.972Z,17.65
2023-05-09T15:58:53.076Z,17.90
2023-05-09T16:01:19.850Z,18.00
2023-05-09T16:03:46.634Z,17.99
2023-05-09T16:06:13.421Z,17.79
2023-05-09T16:08:40.141Z,17.77
2023-05-09T16:11:06.854Z,18.38
2023-05-09T16:13:35.714Z,18.47
2023-05-09T16:16:05.157Z,17.93
2023-05-09T16:18:31.925Z,17.68
2023-05-09T16:20:58.587Z,17.64
2023-05-09T16:23:25.349Z,17.74
2023-05-09T16:25:52.056Z,17.83
2023-05-09T16:28:18.752Z,17.55
2023-05-09T16:30:45.491Z,17.48
2023-05-09T16:33:13.539Z,17.58
2023-05-09T16:35:40.235Z,17.51
2023-05-09T16:38:06.984Z,17.31
2023-05-09T16:40:33.649Z,17.47
2023-05-09T16:43:00.352Z,17.41
2023-05-09T16:45:27.206Z,17.24
2023-05-09T16:47:53.956Z,17.21
2023-05-09T16:50:22.127Z,17.16
2023-05-09T16:52:48.882Z,17.14
2023-05-09T16:55:15.836Z,17.14
2023-05-09T16:57:42.525Z,17.19
2023-05-09T17:00:10.016Z,17.04
2023-05-09T17:02:36.757Z,17.04
2023-05-09T17:05:03.625Z,16.99
2023-05-09T17:07:31.746Z,16.97
2023-05-09T17:09:58.584Z,16.90
2023-05-09T17:12:25.351Z,16.84
2023-05-09T17:14:52.091Z,16.73
2023-05-09T17:17:18.839Z,16.73
2023-05-09T17:19:45.584Z,16.75
2023-05-09T17:22:12.352Z,16.66
2023-05-09T17:24:40.396Z,16.51
2023-05-09T17:27:07.141Z,16.53
2023-05-09T17:29:33.832Z,16.47
2023-05-09T17:32:00.888Z,16.49
2023-05-09T17:34:27.808Z,16.52
2023-05-09T17:36:54.550Z,16.47
2023-05-09T17:39:21.220Z,16.26
2023-05-09T17:41:49.286Z,16.29
2023-05-09T17:44:16.105Z,16.29
2023-05-09T17:46:42.885Z,16.31
2023-05-09T17:49:09.685Z,16.26
2023-05-09T17:51:36.562Z,16.20
2023-05-09T17:54:03.482Z,16.20
2023-05-09T17:56:30.296Z,16.04
2023-05-09T17:58:59.203Z,16.01
2023-05-09T18:01:26.014Z,15.97
2023-05-09T18:03:52.968Z,16.01
2023-05-09T18:06:19.879Z,15.89
2023-05-09T18:08:47.047Z,15.73
2023-05-09T18:11:13.730Z,15.71
2023-05-09T18:13:40.486Z,15.52
2023-05-09T18:16:11.529Z,15.40
2023-05-09T18:18:38.417Z,15.15
2023-05-09T18:21:05.351Z,14.78
2023-05-09T18:23:32.172Z,14.47
2023-05-09T18:25:59.030Z,14.55
2023-05-09T18:28:25.955Z,14.37
2023-05-09T18:30:53.163Z,14.51
2023-05-09T18:33:22.362Z,14.33
2023-05-09T18:35:49.224Z,14.28
2023-05-09T18:38:16.016Z,13.77
2023-05-09T18:40:42.767Z,13.86
2023-05-09T18:43:09.726Z,14.18
2023-05-09T18:45:36.517Z,14.47
2023-05-09T18:48:03.594Z,14.25
2023-05-09T18:50:31.819Z,14.30
2023-05-09T18:52:58.601Z,14.28
2023-05-09T18:55:25.380Z,14.09
2023-05-09T18:57:52.150Z,13.63
2023-05-09T19:00:18.992Z,13.54
2023-05-09T19:02:45.770Z,13.39
2023-05-09T19:05:12.550Z,13.50
2023-05-09T19:07:40.593Z,13.27
2023-05-09T19:10:07.983Z,12.88
2023-05-09T19:12:34.712Z,13.07
2023-05-09T19:15:01.457Z,13.07
2023-05-09T19:17:28.204Z,12.99
2023-05-09T19:19:54.938Z,13.16
2023-05-09T19:22:21.621Z,13.63
2023-05-09T19:24:49.641Z,13.61
2023-05-09T19:27:16.359Z,13.68
2023-05-09T19:29:43.007Z,13.53
2023-05-09T19:32:09.721Z,13.53
2023-05-09T19:34:36.559Z,13.26
2023-05-09T19:37:03.356Z,13.36
2023-05-09T19:39:30.053Z,13.64
2023-05-09T19:42:00.310Z,13.70
2023-05-09T19:44:27.501Z,13.60
2023-05-09T19:46:54.365Z,13.63
2023-05-09T19:49:21.181Z,13.68
2023-05-09T19:51:47.927Z,13.51
2023-05-09T19:54:14.598Z,13.54
2023-05-09T19:56:41.278Z,13.48
2023-05-09T19:59:09.397Z,13.50
2023-05-09T20:01:36.126Z,13.43
2023-05-09T20:04:02.941Z,13.30
2023-05-09T20:06:29.642Z,13.34
2023-05-09T20:08:56.276Z,13.30
2023-05-09T20:11:22.954Z,13.09
2023-05-09T20:13:49.601Z,13.12
2023-05-09T20:16:17.799Z,13.06
2023-05-09T20:18:44.578Z,12.95
2023-05-09T20:21:11.226Z,12.93
2023-05-09T20:23:37.993Z,12.81
2023-05-09T20:26:04.694Z,12.81
2023-05-09T20:28:31.635Z,12.76
2023-05-09T20:30:58.338Z,12.88
2023-05-09T20:33:26.420Z,12.76
2023-05-09T20:35:53.101Z,12.65
2023-05-09T20:38:19.753Z,12.76
2023-05-09T20:40:46.807Z,12.69
2023-05-09T20:43:13.489Z,12.86
2023-05-09T20:45:40.158Z,12.68
2023-05-09T20:48:06.933Z,12.85
2023-05-09T20:50:35.018Z,12.82
2023-05-09T20:53:01.659Z,12.78
2023-05-09T20:55:28.516Z,12.71
2023-05-09T20:57:55.174Z,12.67
2023-05-09T21:00:21.868Z,12.58
2023-05-09T21:02:48.708Z,12.62
2023-05-09T21:05:15.606Z,12.52
2023-05-09T21:07:43.665Z,12.58
2023-05-09T21:10:10.710Z,12.58
2023-05-09T21:12:37.430Z,12.55
2023-05-09T21:15:04.862Z,12.52
2023-05-09T21:17:31.610Z,12.33
2023-05-09T21:19:58.351Z,12.19
2023-05-09T21:22:25.075Z,12.26
2023-05-09T21:24:53.137Z,12.27
2023-05-09T21:27:19.815Z,12.17
2023-05-09T21:29:46.467Z,12.07
2023-05-09T21:32:13.200Z,12.10
2023-05-09T21:34:39.855Z,12.03
2023-05-09T21:37:06.512Z,12.03
2023-05-09T21:39:33.540Z,12.01
2023-05-09T21:42:01.672Z,12.00
2023-05-09T21:44:28.414Z,12.00
2023-05-09T21:46:55.232Z,12.01
2023-05-09T21:49:21.982Z,12.09
2023-05-09T21:51:51.628Z,12.13
2023-05-09T21:54:18.355Z,12.19
2023-05-09T21:56:45.015Z,12.17
2023-05-09T21:59:13.130Z,12.16
2023-05-09T22:01:39.988Z,12.17
2023-05-09T22:04:06.759Z,12.17
2023-05-09T22:06:33.524Z,12.24
2023-05-09T22:09:00.280Z,12.20
2023-05-09T22:11:26.992Z,12.21
2023-05-09T22:13:53.720Z,12.16
2023-05-09T22:16:21.841Z,12.09
2023-05-09T22:18:48.593Z,12.06
2023-05-09T22:21:15.305Z,12.10
2023-05-09T22:23:42.013Z,12.06
2023-05-09T22:26:08.780Z,12.06
2023-05-09T22:28:35.449Z,12.09
2023-05-09T22:31:02.140Z,12.06
2023-05-09T22:33:30.241Z,12.06
2023-05-09T22:35:56.963Z,12.03
2023-05-09T22:38:23.681Z,11.99
2023-05-09T22:40:50.354Z,11.92
2023-05-09T22:43:17.035Z,11.76
2023-05-09T22:45:43.778Z,11.73
2023-05-09T22:48:10.574Z,11.72
2023-05-09T22:50:38.726Z,11.89
2023-05-09T22:53:05.482Z,11.62
2023-05-09T22:55:32.190Z,11.59
2023-05-09T22:57:58.955Z,11.55
2023-05-09T23:00:25.694Z,11.63
2023-05-09T23:02:52.629Z,11.55
2023-05-09T23:05:19.501Z,11.68
2023-05-09T23:07:48.287Z,11.65
2023-05-09T23:10:15.322Z,11.73
2023-05-09T23:12:42.240Z,11.69
2023-05-09T23:15:09.635Z,11.44
2023-05-09T23:17:36.419Z,11.50
2023-05-09T23:20:03.448Z,11.54
2023-05-09T23:22:30.147Z,11.42
2023-05-09T23:24:58.289Z,11.32
2023-05-09T23:27:25.084Z,11.27
2023-05-09T23:29:51.806Z,11.21
2023-05-09T23:32:18.689Z,11.07
2023-05-09T23:34:45.441Z,11.13
2023-05-09T23:37:12.224Z,11.00
2023-05-09T23:39:38.888Z,10.96
2023-05-09T23:42:07.020Z,10.86
2023-05-09T23:44:33.850Z,10.72
2023-05-09T23:47:00.600Z,10.50
2023-05-09T23:49:27.311Z,10.53
2023-05-09T23:51:54.037Z,10.38
2023-05-09T23:54:20.758Z,9.97
2023-05-09T23:56:47.834Z,10.15
2023-05-09T23:59:15.956Z,10.46
